createdAt,value
2019-01-09T00:00:27.800Z,100.00
2019-01-09T00:02:56.058Z,100.00
2019-01-09T00:05:28.396Z,100.00
2019-01-09T00:08:41.008Z,100.00
2019-01-09T00:11:09.359Z,100.00
2019-01-09T00:13:38.689Z,100.00
2019-01-09T00:16:06.968Z,100.00
2019-01-09T00:18:36.215Z,100.00
2019-01-09T00:21:08.611Z,100.00
2019-01-09T00:23:36.920Z,100.00
2019-01-09T00:26:06.183Z,100.00
2019-01-09T00:28:34.455Z,100.00
2019-01-09T00:31:03.762Z,100.00
2019-01-09T00:33:32.059Z,100.00
2019-01-09T00:36:00.326Z,100.00
2019-01-09T00:38:28.685Z,100.00
2019-01-09T00:40:57.052Z,100.00
2019-01-09T00:43:26.434Z,100.00
2019-01-09T00:45:54.722Z,100.00
2019-01-09T00:48:23.073Z,100.00
2019-01-09T00:50:51.523Z,100.00
2019-01-09T00:53:20.922Z,100.00
2019-01-09T00:55:49.267Z,100.00
2019-01-09T00:58:17.612Z,100.00
2019-01-09T01:00:47.642Z,100.00
2019-01-09T01:03:43.171Z,100.00
2019-01-09T01:06:41.973Z,100.00
2019-01-09T01:09:16.624Z,100.00
2019-01-09T01:12:03.136Z,100.00
2019-01-09T01:14:50.835Z,100.00
2019-01-09T01:17:40.293Z,100.00
2019-01-09T01:20:11.785Z,100.00
2019-01-09T01:23:02.639Z,100.00
2019-01-09T01:25:36.605Z,100.00
2019-01-09T01:28:08.189Z,100.00
2019-01-09T01:31:02.309Z,100.00
2019-01-09T01:33:45.568Z,100.00
2019-01-09T01:36:19.800Z,100.00
2019-01-09T01:39:06.577Z,100.00
2019-01-09T01:41:38.045Z,100.00
2019-01-09T01:44:09.482Z,100.00
2019-01-09T01:46:57.182Z,100.00
2019-01-09T01:49:57.161Z,100.00
2019-01-09T01:52:34.364Z,100.00
2019-01-09T01:55:12.350Z,100.00
2019-01-09T01:57:46.532Z,100.00
2019-01-09T02:00:34.421Z,100.00
2019-01-09T02:03:11.652Z,100.00
2019-01-09T02:05:45.919Z,100.00
2019-01-09T02:08:47.704Z,98.23
2019-01-09T02:11:27.787Z,100.00
2019-01-09T02:13:59.282Z,100.00
2019-01-09T02:16:51.173Z,100.00
2019-01-09T02:19:37.441Z,100.00
2019-01-09T02:22:11.898Z,100.00
2019-01-09T02:24:43.358Z,100.00
2019-01-09T02:27:14.807Z,100.00
2019-01-09T02:29:46.318Z,100.00
2019-01-09T02:32:33.367Z,97.71
2019-01-09T02:35:02.611Z,100.00
2019-01-09T02:37:32.815Z,100.00
2019-01-09T02:40:01.102Z,100.00
2019-01-09T02:42:29.475Z,100.00
2019-01-09T02:44:57.779Z,100.00
2019-01-09T02:47:26.081Z,98.36
2019-01-09T02:49:54.875Z,99.25
2019-01-09T02:52:23.184Z,100.00
2019-01-09T02:54:52.486Z,99.66
2019-01-09T02:57:20.775Z,100.00
2019-01-09T02:59:49.063Z,100.00
2019-01-09T03:02:17.325Z,100.00
2019-01-09T03:04:45.681Z,100.00
2019-01-09T03:07:13.952Z,100.00
2019-01-09T03:09:42.217Z,100.00
2019-01-09T03:12:10.487Z,96.64
2019-01-09T03:14:38.808Z,94.33
2019-01-09T03:17:07.025Z,99.95
2019-01-09T03:19:35.295Z,98.78
2019-01-09T03:22:04.565Z,97.37
2019-01-09T03:24:32.871Z,98.50
2019-01-09T03:27:01.136Z,97.58
2019-01-09T03:29:29.564Z,98.30
2019-01-09T03:31:57.897Z,99.54
2019-01-09T03:34:26.166Z,95.76
2019-01-09T03:36:54.454Z,94.78
2019-01-09T03:39:22.723Z,93.00
2019-01-09T03:41:50.997Z,95.82
2019-01-09T03:44:19.249Z,99.90
2019-01-09T03:46:47.527Z,97.22
2019-01-09T03:49:15.844Z,95.40
2019-01-09T03:51:44.179Z,97.36
2019-01-09T03:54:13.400Z,98.67
2019-01-09T03:56:41.675Z,98.96
2019-01-09T03:59:09.961Z,100.00
2019-01-09T04:01:38.241Z,100.00
2019-01-09T04:04:06.537Z,100.00
2019-01-09T04:06:41.781Z,100.00
2019-01-09T04:09:05.464Z,100.00
2019-01-09T04:11:33.888Z,100.00
2019-01-09T04:14:02.210Z,98.13
2019-01-09T04:16:31.473Z,97.03
2019-01-09T04:18:59.770Z,96.58
2019-01-09T04:21:29.062Z,94.36
2019-01-09T04:23:57.320Z,92.63
2019-01-09T04:26:25.613Z,97.84
2019-01-09T04:28:53.930Z,95.38
2019-01-09T04:31:22.183Z,97.51
2019-01-09T04:33:50.452Z,94.97
2019-01-09T04:36:20.406Z,97.05
2019-01-09T04:38:48.676Z,100.00
2019-01-09T04:41:16.975Z,99.70
2019-01-09T04:43:45.260Z,98.86
2019-01-09T04:46:13.515Z,100.00
2019-01-09T04:48:41.773Z,100.00
2019-01-09T04:51:10.063Z,100.00
2019-01-09T04:53:38.311Z,100.00
2019-01-09T04:56:06.595Z,100.00
2019-01-09T04:58:34.860Z,100.00
2019-01-09T05:01:04.166Z,99.16
2019-01-09T05:03:33.466Z,97.82
2019-01-09T05:06:01.735Z,97.52
2019-01-09T05:08:30.007Z,99.78
2019-01-09T05:10:58.296Z,100.00
2019-01-09T05:13:27.587Z,100.00
2019-01-09T05:15:55.848Z,100.00
2019-01-09T05:18:25.205Z,100.00
2019-01-09T05:20:53.496Z,100.00
2019-01-09T05:23:23.285Z,100.00
2019-01-09T05:25:51.630Z,100.00
2019-01-09T05:28:20.939Z,100.00
2019-01-09T05:30:50.247Z,100.00
2019-01-09T05:33:18.540Z,100.00
2019-01-09T05:35:46.798Z,100.00
2019-01-09T05:38:15.079Z,100.00
2019-01-09T05:40:43.360Z,100.00
2019-01-09T05:43:11.724Z,100.00
2019-01-09T05:45:39.994Z,100.00
2019-01-09T05:48:08.273Z,100.00
2019-01-09T05:50:36.591Z,100.00
2019-01-09T05:53:05.956Z,100.00
2019-01-09T05:55:35.257Z,100.00
2019-01-09T05:58:03.544Z,100.00
2019-01-09T06:00:32.835Z,100.00
2019-01-09T06:03:01.141Z,100.00
2019-01-09T06:05:29.394Z,100.00
2019-01-09T06:07:57.677Z,100.00
2019-01-09T06:10:25.961Z,100.00
2019-01-09T06:12:55.244Z,100.00
2019-01-09T06:15:23.552Z,100.00
2019-01-09T06:17:51.847Z,100.00
2019-01-09T06:20:20.124Z,100.00
2019-01-09T06:22:48.417Z,100.00
2019-01-09T06:25:16.712Z,100.00
2019-01-09T06:27:44.985Z,100.00
2019-01-09T06:30:16.421Z,100.00
2019-01-09T06:32:44.803Z,100.00
2019-01-09T06:35:13.160Z,100.00
2019-01-09T06:37:41.516Z,100.00
2019-01-09T06:40:09.784Z,100.00
2019-01-09T06:42:38.046Z,100.00
2019-01-09T06:45:06.809Z,100.00
2019-01-09T06:47:37.071Z,100.00
2019-01-09T06:50:08.524Z,100.00
2019-01-09T06:52:37.053Z,100.00
2019-01-09T06:55:05.561Z,100.00
2019-01-09T06:57:33.851Z,100.00
2019-01-09T07:00:02.126Z,100.00
2019-01-09T07:02:30.426Z,100.00
2019-01-09T07:04:58.788Z,99.07
2019-01-09T07:07:35.809Z,99.48
2019-01-09T07:09:57.177Z,100.00
2019-01-09T07:12:25.474Z,97.86
2019-01-09T07:14:53.961Z,98.05
2019-01-09T07:17:22.242Z,98.04
2019-01-09T07:19:50.530Z,97.40
2019-01-09T07:22:18.796Z,98.13
2019-01-09T07:24:47.123Z,95.63
2019-01-09T07:27:15.401Z,95.03
2019-01-09T07:29:43.682Z,95.18
2019-01-09T07:32:13.945Z,94.56
2019-01-09T07:34:42.203Z,93.20
2019-01-09T07:37:10.500Z,93.46
2019-01-09T07:39:40.007Z,91.09
2019-01-09T07:42:08.368Z,94.24
2019-01-09T07:44:36.633Z,92.47
2019-01-09T07:47:04.968Z,92.85
2019-01-09T07:49:33.316Z,91.82
2019-01-09T07:52:01.619Z,92.15
2019-01-09T07:54:29.891Z,89.52
2019-01-09T07:56:58.173Z,89.46
2019-01-09T07:59:26.459Z,89.59
2019-01-09T08:01:55.751Z,88.92
2019-01-09T08:04:24.017Z,88.70
2019-01-09T08:06:52.326Z,88.89
2019-01-09T08:09:20.657Z,90.89
2019-01-09T08:11:48.921Z,89.30
2019-01-09T08:14:17.190Z,88.77
2019-01-09T08:16:45.533Z,88.62
2019-01-09T08:19:13.873Z,90.15
2019-01-09T08:21:42.175Z,88.20
2019-01-09T08:24:15.557Z,88.45
2019-01-09T08:26:44.017Z,88.35
2019-01-09T08:29:12.306Z,89.02
2019-01-09T08:31:40.621Z,87.82
2019-01-09T08:34:08.907Z,85.90
2019-01-09T08:36:37.182Z,87.46
2019-01-09T08:39:06.679Z,86.56
2019-01-09T08:41:35.195Z,86.50
2019-01-09T08:44:03.461Z,86.43
2019-01-09T08:46:31.730Z,84.71
2019-01-09T08:48:59.977Z,87.04
2019-01-09T08:51:28.256Z,85.14
2019-01-09T08:53:57.530Z,84.78
2019-01-09T08:56:25.828Z,86.75
2019-01-09T08:58:56.168Z,85.41
2019-01-09T09:01:24.479Z,86.15
2019-01-09T09:03:53.992Z,86.05
2019-01-09T09:06:29.216Z,87.30
2019-01-09T09:09:02.235Z,87.76
2019-01-09T09:11:32.476Z,89.13
2019-01-09T09:14:00.761Z,89.49
2019-01-09T09:16:36.634Z,88.25
2019-01-09T09:18:59.093Z,89.48
2019-01-09T09:21:27.497Z,91.00
2019-01-09T09:23:55.741Z,91.98
2019-01-09T09:26:24.036Z,93.68
2019-01-09T09:28:52.291Z,91.39
2019-01-09T09:31:20.570Z,89.24
2019-01-09T09:33:48.841Z,90.61
2019-01-09T09:36:17.104Z,90.84
2019-01-09T09:38:45.360Z,89.74
2019-01-09T09:41:20.655Z,89.71
2019-01-09T09:43:48.903Z,89.37
2019-01-09T09:46:17.166Z,87.78
2019-01-09T09:48:45.485Z,86.74
2019-01-09T09:51:13.752Z,85.26
2019-01-09T09:53:42.032Z,84.15
2019-01-09T09:56:11.302Z,83.21
2019-01-09T09:58:39.577Z,83.07
2019-01-09T10:01:07.838Z,85.97
2019-01-09T10:03:36.144Z,85.10
2019-01-09T10:06:04.600Z,85.25
2019-01-09T10:08:32.883Z,85.80
2019-01-09T10:11:01.291Z,85.23
2019-01-09T10:13:29.553Z,84.74
2019-01-09T10:15:57.808Z,85.69
2019-01-09T10:18:26.090Z,83.29
2019-01-09T10:20:54.522Z,82.71
2019-01-09T10:23:22.736Z,82.17
2019-01-09T10:25:51.011Z,83.87
2019-01-09T10:28:19.310Z,86.20
2019-01-09T10:30:47.707Z,86.98
2019-01-09T10:33:15.967Z,86.61
2019-01-09T10:35:44.256Z,94.86
2019-01-09T10:38:12.539Z,95.54
2019-01-09T10:40:40.783Z,96.89
2019-01-09T10:43:09.066Z,97.15
2019-01-09T10:45:37.393Z,96.53
2019-01-09T10:48:06.834Z,95.65
2019-01-09T10:50:35.133Z,93.68
2019-01-09T10:53:03.393Z,94.93
2019-01-09T10:55:31.664Z,95.16
2019-01-09T10:57:59.929Z,95.33
2019-01-09T11:00:28.244Z,93.68
2019-01-09T11:02:56.706Z,94.03
2019-01-09T11:05:25.043Z,95.85
2019-01-09T11:07:53.311Z,92.78
2019-01-09T11:10:23.661Z,92.88
2019-01-09T11:12:52.013Z,95.31
2019-01-09T11:15:23.488Z,92.69
2019-01-09T11:17:51.768Z,93.19
2019-01-09T11:20:21.386Z,90.81
2019-01-09T11:22:49.765Z,87.58
2019-01-09T11:25:20.359Z,85.86
2019-01-09T11:27:48.731Z,84.18
2019-01-09T11:30:18.366Z,80.05
2019-01-09T11:32:46.766Z,81.81
2019-01-09T11:35:17.406Z,80.20
2019-01-09T11:37:45.707Z,77.45
2019-01-09T11:40:16.671Z,80.72
2019-01-09T11:42:45.005Z,80.02
2019-01-09T11:45:18.804Z,77.51
2019-01-09T11:47:47.623Z,76.38
2019-01-09T11:50:16.678Z,79.90
2019-01-09T11:52:45.058Z,77.02
2019-01-09T11:55:14.670Z,77.73
2019-01-09T11:57:42.930Z,76.94
2019-01-09T12:00:22.863Z,73.80
2019-01-09T12:02:52.256Z,74.35
2019-01-09T12:05:20.517Z,72.53
2019-01-09T12:07:48.859Z,73.51
2019-01-09T12:10:19.462Z,75.59
2019-01-09T12:12:47.810Z,73.20
2019-01-09T12:15:17.538Z,75.25
2019-01-09T12:17:45.875Z,73.16
2019-01-09T12:20:18.476Z,73.34
2019-01-09T12:22:47.123Z,76.18
2019-01-09T12:25:15.393Z,78.99
2019-01-09T12:27:43.674Z,77.07
2019-01-09T12:30:26.515Z,81.60
2019-01-09T12:32:54.842Z,79.21
2019-01-09T12:35:23.338Z,80.01
2019-01-09T12:37:51.703Z,76.62
2019-01-09T12:40:20.118Z,81.51
2019-01-09T12:42:48.418Z,78.94
2019-01-09T12:45:17.459Z,75.59
2019-01-09T12:47:46.840Z,76.11
2019-01-09T12:50:18.431Z,76.00
2019-01-09T12:52:46.696Z,73.92
2019-01-09T12:55:15.024Z,75.13
2019-01-09T12:57:43.283Z,72.03
2019-01-09T13:00:20.762Z,72.43
2019-01-09T13:02:50.022Z,73.79
2019-01-09T13:05:18.316Z,73.62
2019-01-09T13:07:46.593Z,70.97
2019-01-09T13:10:14.990Z,71.44
2019-01-09T13:12:43.568Z,67.79
2019-01-09T13:15:12.172Z,68.46
2019-01-09T13:17:40.496Z,65.75
2019-01-09T13:20:14.029Z,65.56
2019-01-09T13:22:42.598Z,66.60
2019-01-09T13:25:12.403Z,65.08
2019-01-09T13:27:44.355Z,65.60
2019-01-09T13:30:15.823Z,63.03
2019-01-09T13:32:44.172Z,65.39
2019-01-09T13:35:12.502Z,64.78
2019-01-09T13:37:40.772Z,63.34
2019-01-09T13:40:14.128Z,66.49
2019-01-09T13:42:42.444Z,62.86
2019-01-09T13:45:13.459Z,66.55
2019-01-09T13:47:41.997Z,66.17
2019-01-09T13:50:12.797Z,66.97
2019-01-09T13:52:41.052Z,65.64
2019-01-09T13:55:11.663Z,68.56
2019-01-09T13:57:40.114Z,66.31
2019-01-09T14:00:11.636Z,68.20
2019-01-09T14:02:40.573Z,68.29
2019-01-09T14:05:09.867Z,68.55
2019-01-09T14:07:38.234Z,66.53
2019-01-09T14:10:23.875Z,67.53
2019-01-09T14:12:52.137Z,66.13
2019-01-09T14:15:21.847Z,66.34
2019-01-09T14:20:35.445Z,65.95
2019-01-09T14:23:03.691Z,64.98
2019-01-09T14:25:31.967Z,66.24
2019-01-09T14:28:01.482Z,66.60
2019-01-09T14:30:30.056Z,68.50
2019-01-09T14:32:58.318Z,68.29
2019-01-09T14:35:26.607Z,67.64
2019-01-09T14:37:54.893Z,67.66
2019-01-09T14:40:23.227Z,66.73
2019-01-09T14:42:51.516Z,68.33
2019-01-09T14:45:19.791Z,67.75
2019-01-09T14:47:48.098Z,66.16
2019-01-09T14:50:19.112Z,66.42
2019-01-09T14:52:47.390Z,66.33
2019-01-09T14:55:16.402Z,67.97
2019-01-09T14:57:45.025Z,65.84
2019-01-09T15:00:16.394Z,67.22
2019-01-09T15:02:44.682Z,66.86
2019-01-09T15:05:13.076Z,67.87
2019-01-09T15:07:41.378Z,66.59
2019-01-09T15:10:18.076Z,67.41
2019-01-09T15:12:47.003Z,68.27
2019-01-09T15:15:17.128Z,67.95
2019-01-09T15:17:45.427Z,69.32
2019-01-09T15:20:22.037Z,67.85
2019-01-09T15:22:50.363Z,68.05
2019-01-09T15:25:19.012Z,67.90
2019-01-09T15:27:47.660Z,68.17
2019-01-09T15:30:19.115Z,69.66
2019-01-09T15:32:47.589Z,69.26
2019-01-09T15:35:15.854Z,69.34
2019-01-09T15:37:44.115Z,70.28
2019-01-09T15:40:18.567Z,69.38
2019-01-09T15:42:47.017Z,69.35
2019-01-09T15:45:15.371Z,69.92
2019-01-09T15:47:44.201Z,68.89
2019-01-09T15:50:20.988Z,68.53
2019-01-09T15:52:49.274Z,68.96
2019-01-09T15:55:17.876Z,71.35
2019-01-09T15:57:47.886Z,70.90
2019-01-09T16:00:19.443Z,69.83
2019-01-09T16:02:47.708Z,71.70
2019-01-09T16:05:16.356Z,71.39
2019-01-09T16:07:44.613Z,71.31
2019-01-09T16:10:18.792Z,71.05
2019-01-09T16:12:47.049Z,72.09
2019-01-09T16:15:17.943Z,71.85
2019-01-09T16:17:47.394Z,73.40
2019-01-09T16:20:20.452Z,71.53
2019-01-09T16:22:49.767Z,71.66
2019-01-09T16:25:20.208Z,71.06
2019-01-09T16:27:48.496Z,71.49
2019-01-09T16:30:34.212Z,70.88
2019-01-09T16:33:04.562Z,70.60
2019-01-09T16:35:35.037Z,69.08
2019-01-09T16:38:03.756Z,69.16
2019-01-09T16:40:32.308Z,68.87
2019-01-09T16:43:01.661Z,69.75
2019-01-09T16:45:30.306Z,68.42
2019-01-09T16:47:58.589Z,67.79
2019-01-09T16:50:28.268Z,67.78
2019-01-09T16:52:56.532Z,66.32
2019-01-09T16:55:25.087Z,68.84
2019-01-09T16:57:53.365Z,68.43
2019-01-09T17:00:36.722Z,69.12
2019-01-09T17:03:05.162Z,68.85
2019-01-09T17:05:33.529Z,66.88
2019-01-09T17:08:02.169Z,67.08
2019-01-09T17:10:32.563Z,67.50
2019-01-09T17:13:00.494Z,66.24
2019-01-09T17:15:28.839Z,68.15
2019-01-09T17:17:57.187Z,67.61
2019-01-09T17:20:27.432Z,68.98
2019-01-09T17:22:57.761Z,68.14
2019-01-09T17:25:26.099Z,68.59
2019-01-09T17:27:55.501Z,66.97
2019-01-09T17:30:27.308Z,67.98
2019-01-09T17:32:55.722Z,67.24
2019-01-09T17:35:24.096Z,67.57
2019-01-09T17:37:52.664Z,67.28
2019-01-09T17:40:25.540Z,66.53
2019-01-09T17:42:54.137Z,67.87
2019-01-09T17:45:22.421Z,68.12
2019-01-09T17:47:57.664Z,66.10
2019-01-09T17:50:51.571Z,66.84
2019-01-09T17:53:19.894Z,69.69
2019-01-09T17:55:48.142Z,68.91
2019-01-09T17:58:17.426Z,69.41
2019-01-09T18:00:46.154Z,68.48
2019-01-09T18:03:15.448Z,69.33
2019-01-09T18:05:43.735Z,68.67
2019-01-09T18:08:12.028Z,67.51
2019-01-09T18:10:40.290Z,67.75
2019-01-09T18:13:12.333Z,68.30
2019-01-09T18:15:40.699Z,68.84
2019-01-09T18:18:09.018Z,68.28
2019-01-09T18:20:37.278Z,67.51
2019-01-09T18:23:05.693Z,67.46
2019-01-09T18:25:33.980Z,68.05
2019-01-09T18:28:02.268Z,69.10
2019-01-09T18:30:45.922Z,68.72
2019-01-09T18:33:19.808Z,68.37
2019-01-09T18:36:10.274Z,68.55
2019-01-09T18:38:53.125Z,67.95
2019-01-09T18:41:24.574Z,67.97
2019-01-09T18:44:04.624Z,68.83
2019-01-09T18:47:04.264Z,69.81
2019-01-09T18:49:41.670Z,67.69
2019-01-09T18:52:15.891Z,69.47
2019-01-09T18:54:44.195Z,69.20
2019-01-09T18:57:12.496Z,67.67
2019-01-09T18:59:40.761Z,70.25
2019-01-09T19:02:10.361Z,69.82
2019-01-09T19:04:40.077Z,68.25
2019-01-09T19:07:08.772Z,69.07
2019-01-09T19:09:37.094Z,68.71
2019-01-09T19:12:05.488Z,68.58
2019-01-09T19:14:33.739Z,66.84
2019-01-09T19:17:02.016Z,68.36
2019-01-09T19:19:30.607Z,68.49
2019-01-09T19:21:58.824Z,70.70
2019-01-09T19:24:27.116Z,69.95
2019-01-09T19:26:55.366Z,68.09
2019-01-09T19:29:23.718Z,68.78
2019-01-09T19:31:52.344Z,67.63
2019-01-09T19:34:21.222Z,68.62
2019-01-09T19:36:49.499Z,68.63
2019-01-09T19:39:17.782Z,68.50
2019-01-09T19:41:46.062Z,69.66
2019-01-09T19:44:14.372Z,68.92
2019-01-09T19:46:42.634Z,69.36
2019-01-09T19:49:10.932Z,68.07
2019-01-09T19:51:39.203Z,69.15
2019-01-09T19:54:07.488Z,66.66
2019-01-09T19:56:35.762Z,66.12
2019-01-09T19:59:04.280Z,67.90
2019-01-09T20:01:32.590Z,66.16
2019-01-09T20:04:00.843Z,68.36
2019-01-09T20:06:29.104Z,65.45
2019-01-09T20:08:57.412Z,67.59
2019-01-09T20:11:26.479Z,66.53
2019-01-09T20:13:54.971Z,67.38
2019-01-09T20:16:23.288Z,67.85
2019-01-09T20:18:51.540Z,69.64
2019-01-09T20:21:19.885Z,68.63
2019-01-09T20:23:48.225Z,68.44
2019-01-09T20:26:16.599Z,68.43
2019-01-09T20:28:44.932Z,68.85
2019-01-09T20:31:13.281Z,68.60
2019-01-09T20:33:41.505Z,68.31
2019-01-09T20:36:09.777Z,67.26
2019-01-09T20:38:38.184Z,67.76
2019-01-09T20:41:06.517Z,69.45
2019-01-09T20:43:34.822Z,69.50
2019-01-09T20:46:03.236Z,71.37
2019-01-09T20:48:31.609Z,70.11
2019-01-09T20:51:00.009Z,69.09
2019-01-09T20:53:28.357Z,71.00
2019-01-09T20:55:56.759Z,69.06
2019-01-09T20:58:25.010Z,69.42
2019-01-09T21:00:53.411Z,69.21
2019-01-09T21:03:21.862Z,69.22
2019-01-09T21:05:50.094Z,69.38
2019-01-09T21:08:19.606Z,72.76
2019-01-09T21:10:48.103Z,73.49
2019-01-09T21:13:16.392Z,74.32
2019-01-09T21:15:44.779Z,75.78
2019-01-09T21:18:13.185Z,79.39
2019-01-09T21:20:41.581Z,79.29
2019-01-09T21:23:09.936Z,77.10
2019-01-09T21:25:39.288Z,77.77
2019-01-09T21:28:07.604Z,75.94
2019-01-09T21:30:36.989Z,75.15
2019-01-09T21:33:05.671Z,76.96
2019-01-09T21:35:36.607Z,75.16
2019-01-09T21:38:06.905Z,77.14
2019-01-09T21:40:35.210Z,78.73
2019-01-09T21:43:03.596Z,77.27
2019-01-09T21:45:31.950Z,76.25
2019-01-09T21:48:00.266Z,74.74
2019-01-09T21:50:28.883Z,75.66
2019-01-09T21:52:57.226Z,73.22
2019-01-09T21:55:25.660Z,72.37
2019-01-09T21:57:54.893Z,72.29
2019-01-09T22:00:25.227Z,73.93
2019-01-09T22:02:53.492Z,74.55
2019-01-09T22:05:22.433Z,74.30
2019-01-09T22:07:51.498Z,73.82
2019-01-09T22:10:27.987Z,76.55
2019-01-09T22:12:57.420Z,77.42
2019-01-09T22:15:26.141Z,75.13
2019-01-09T22:17:55.336Z,73.90
2019-01-09T22:20:23.820Z,73.35
2019-01-09T22:22:52.103Z,73.95
2019-01-09T22:25:24.384Z,74.22
2019-01-09T22:27:55.292Z,74.86
2019-01-09T22:30:26.497Z,75.17
2019-01-09T22:33:00.805Z,76.70
2019-01-09T22:35:29.152Z,77.31
2019-01-09T22:38:04.553Z,76.78
2019-01-09T22:40:32.839Z,76.11
2019-01-09T22:43:09.910Z,76.41
2019-01-09T22:45:38.196Z,77.51
2019-01-09T22:48:07.449Z,76.08
2019-01-09T22:50:35.714Z,75.59
2019-01-09T22:53:04.073Z,75.60
2019-01-09T22:55:32.364Z,75.29
2019-01-09T22:58:00.640Z,76.28
2019-01-09T23:00:43.627Z,76.46
2019-01-09T23:03:14.221Z,78.73
2019-01-09T23:05:45.723Z,76.37
2019-01-09T23:08:14.009Z,77.49
2019-01-09T23:10:42.385Z,74.83
2019-01-09T23:13:12.876Z,77.55
2019-01-09T23:15:42.315Z,78.76
2019-01-09T23:18:12.848Z,78.85
2019-01-09T23:20:41.120Z,76.83
2019-01-09T23:23:15.932Z,78.02
2019-01-09T23:25:44.231Z,78.98
2019-01-09T23:28:12.699Z,74.47
2019-01-09T23:30:40.970Z,77.64
2019-01-09T23:33:09.352Z,77.09
2019-01-09T23:35:37.705Z,77.98
2019-01-09T23:38:06.092Z,77.78
2019-01-09T23:40:34.467Z,76.19
2019-01-09T23:43:02.829Z,75.06
2019-01-09T23:45:31.346Z,72.91
2019-01-09T23:48:01.619Z,75.96
2019-01-09T23:50:30.216Z,75.60
2019-01-09T23:53:01.777Z,78.53
2019-01-09T23:55:30.399Z,76.08
2019-01-09T23:57:58.764Z,75.92
